St Johns — 9LU2496 — position and weather

sailwx.info

Track history (hours):
 
Tides and Currents Weather Stations Pressure Air Temp Water Temp Dewpoint Dewpoint Depression Visibility Wind Speed Wind Dir Waves Ship Positions

St Johns

Last reported at 2018-Jun-26 20:28 UTC. Time now 2018-Jul-22 10:27 UTC.
Position N 43°23' E 028°54'.
Warning: this ship's position is 25 days out of date.

Length 110 m; draft 5.7 m.

Type: Cargo ship. MMSI: 667001693.

Date/timePositionNaut miles runAvg speedWind from/ knotsBaromVisibWave heightAir tempDewpointWater temp
2018-Jun-26 20:28N 43°23' E 028°54'14 8.8
2018-Jun-26 18:52N 43°35' E 029°02'3 9.1
2018-Jun-26 18:30N 43°38' E 029°04'5 9.2
2018-Jun-26 17:59N 43°42' E 029°07'4 9.1
2018-Jun-26 17:30N 43°46' E 029°10'9 9.2
2018-Jun-26 16:30N 43°54' E 029°16'5 9.3
2018-Jun-26 16:00N 43°58' E 029°20'5 9.3
2018-Jun-26 15:30N 44°02' E 029°23'5 9.6
2018-Jun-26 14:57N 44°07' E 029°27'5 9.3
2018-Jun-26 14:25N 44°11' E 029°29'4 9.6
2018-Jun-26 13:59N 44°15' E 029°32'5 9.4
2018-Jun-26 13:29N 44°20' E 029°34'  
Track history (hours):
 
Tides and Currents Weather Stations Pressure Air Temp Water Temp Dewpoint Dewpoint Depression Visibility Wind Speed Wind Dir Waves Ship Positions

St Johns

Last reported at 2018-Jun-26 20:28 UTC. Time now 2018-Jul-22 10:27 UTC.
Position N 43°23' E 028°54'.
Warning: this ship's position is 25 days out of date.

Length 110 m; draft 5.7 m.

Type: Cargo ship. MMSI: 667001693.

Date/timePositionNaut miles runAvg speedWind from/ knotsBaromVisibWave heightAir tempDewpointWater temp
2018-Jun-26 20:28N 43°23' E 028°54'14 8.8
2018-Jun-26 18:52N 43°35' E 029°02'3 9.1
2018-Jun-26 18:30N 43°38' E 029°04'5 9.2
2018-Jun-26 17:59N 43°42' E 029°07'4 9.1
2018-Jun-26 17:30N 43°46' E 029°10'9 9.2
2018-Jun-26 16:30N 43°54' E 029°16'5 9.3
2018-Jun-26 16:00N 43°58' E 029°20'5 9.3
2018-Jun-26 15:30N 44°02' E 029°23'5 9.6
2018-Jun-26 14:57N 44°07' E 029°27'5 9.3
2018-Jun-26 14:25N 44°11' E 029°29'4 9.6
2018-Jun-26 13:59N 44°15' E 029°32'5 9.4
2018-Jun-26 13:29N 44°20' E 029°34'  

Dump ship's entire track history